NCAR-RAP Real-Time Weather Data

Output produced by METARs form (26 May 2022  08:50 UTC)
found at http://weather.rap.ucar.edu/surface/
 
KMEM 260754Z 17013G20KT 10SM SCT013 BKN017 BKN090 21/19 A2981 RMK AO2 LTG DSNT N RAE02 SLP092 FRQ LTGIC DSNT SW-W CB DSNT SW-W MOV NE P0000 T02060189
KMEM 260750Z 18012G20KT 10SM SCT013 BKN017 BKN090 21/19 A2982 RMK AO2 LTG DSNT N RAE02 FRQ LTGIC DSNT SW-W CB DSNT SW-W MOV NE P0000
KMEM 260654Z 16010KT 8SM -RA BKN010 OVC110 21/19 A2981 RMK AO2 LTG DSNT NE AND E AND W RAB05E35B51 TSE0555B09E37 SLP091 FRQ LTGIC DSNT NE-E CB DSNT NE-E P0002 T02060189
KMEM 260647Z 17012G18KT 8SM BKN010 BKN014 OVC110 21/19 A2981 RMK AO2 LTG DSNT NE AND E AND W RAB05E35 TSE0555B09E37 FRQ LTGIC DSNT NE-E CB DSNT NE-E P0002 T02060189
KMEM 260637Z 17012G17KT 8SM FEW020 FEW049 BKN100 OVC250 21/19 A2982 RMK AO2 LTG DSNT ALQDS RAB05E35 TSE0555B09E37 FRQ LTGICCA DSNT NE-E CB DSNT NE-E P0002 T02110189
KMEM 260612Z 17012KT 8SM TSRA FEW032 FEW065CB OVC110 21/19 A2983 RMK AO2 LTG DSNT NE-S RAB05 TSE0555B09 OCNL LTGICCA OHD AND DSNT NE-E TS OHD MOV N CB DSNT NE-E P0001 T02110189
KMEM 260609Z COR 17011KT 8SM TSRA FEW032 FEW065CB OVC110 21/19 A2983 RMK AO2 LTG DSNT E AND S RAB05 TSE0555B09 OCNL LTGICCA OHD AND DSNT NE-E TS OHD MOV N CB DSNT NE-E P0000 T02110189
KMEM 260554Z 18012KT 7SM FEW017 BKN038 OVC250 21/19 A2984 RMK AO2 LTG DSNT SE AND SW RAB12E37 SLP100 FRQ LTGIC DSNT NE-SE-SW CB DSNT NE-SE-SW P0002 60002 T02110189 10244 20211 402560206 50003
KMEM 260551Z 17009KT 7SM FEW017 BKN038 OVC250 21/19 A2983 RMK AO2 LTG DSNT SE AND SW RAB12E37 FRQ LTGIC DSNT NE-SE-SW CB DSNT NE-SE-SW P0002
KMEM 260526Z 18011KT 7SM -RA BKN017 BKN038 BKN049 22/19 A2984 RMK AO2 LTG DSNT N AND S AND SW RAB12 P0002 T02170194
KMEM 260454Z 17012KT 10SM BKN014 OVC021 23/19 A2984 RMK AO2 LTG DSNT N AND S TSE45 SLP101 FRQ LTG DSNT NW-N T02280194
KMEM 260445Z 17014G18KT 10SM BKN014 OVC021 23/19 A2984 RMK AO2 LTG DSNT N AND S TSE45 FRQ LTG DSNT NW-N T02280194
KMEM 260354Z 17010KT 10SM TS BKN016CB 23/20 A2983 RMK AO2 LTG DSNT SW-N TSB50 SLP098 FRQ LTGICCC SW-NW TS SW-NW MOV NE T02280200
KMEM 260350Z 16011KT 10SM TS BKN016CB 23/20 A2983 RMK AO2 LTG DSNT SW-N TSB50 FRQ LTGICCC W TS W MOV NE
KMEM 260254Z 18009KT 10SM BKN026 OVC033 23/20 A2983 RMK AO2 SLP097 T02330200 53010
KMEM 260226Z 17009KT 10SM BKN026 BKN031 OVC250 23/20 A2981 RMK AO2 T02280200
KMEM 260154Z 16008KT 10SM SCT025 BKN250 23/20 A2980 RMK AO2 SLP088 T02280200
KMEM 260054Z 16011KT 10SM FEW017 SCT044 BKN250 23/20 A2981 RMK AO2 SLP090 T02330200
KMEM 252354Z 16011KT 10SM FEW020 FEW035 BKN250 24/19 A2980 RMK AO2 SLP086 60007 T02440194 10256 20217 56001
KMEM 252337Z 17013G23KT 10SM FEW020 SCT035 BKN250 25/19 A2979 RMK AO2 T02500194
KMEM 252311Z 16012G21KT 10SM SCT020 BKN033 BKN250 24/19 A2980 RMK AO2 T02440194
KMEM 252254Z 17014G21KT 10SM SCT020 SCT130 BKN210 25/19 A2980 RMK AO2 SLP086 T02500189
KMEM 252154Z 16017G23KT 10SM FEW020 SCT035 BKN210 25/20 A2979 RMK AO2 SLP085 T02500200
KMEM 252054Z 17017G26KT 10SM FEW022 BKN130 BKN250 25/20 A2980 RMK AO2 PK WND 16026/2048 SLP087 60007 T02500200 56015
KMEM 251954Z 17010KT 9SM SCT045 BKN100 OVC250 23/20 A2982 RMK AO2 RAB00E48 SLP094 VCSH N P0001 T02280200
KMEM 251854Z 14013G21KT 10SM FEW015 BKN040CB BKN100 BKN250 23/20 A2980 RMK AO2 PK WND 15027/1757 RAB03E39 PRESFR SLP089 CB S MOV N P0006 T02330200
KMEM 251837Z 15011KT 10SM -RA FEW015 BKN040TCU BKN100 23/20 A2982 RMK AO2 PK WND 15027/1757 RAB03 TCU S P0006 T02280200
KMEM 251820Z 17012KT 4SM RA BR SCT015 BKN038CB OVC100 22/20 A2984 RMK AO2 PK WND 15027/1757 RAB03 CB OHD-NW P0004 T02220200
KMEM 251807Z 17014G24KT 8SM -RA FEW015 SCT040CB BKN075 OVC130 23/19 A2985 RMK AO2 PK WND 15027/1757 RAB03 CB S-W-NW MOV N P0000 T02330194
KMEM 251754Z 16017G21KT 10SM SCT040CB BKN075 BKN110 OVC200 24/19 A2984 RMK AO2 PK WND 15029/1712 DZE02RAB03E22B32E41 SLP101 CB S-W MOV N P0000 60000 T02440194 10244 20211 56011
KMEM 251730Z 16019G25KT 8SM FEW021 SCT080 BKN100 OVC200 24/19 A2984 RMK AO2 PK WND 15029/1712 LTG DSNT S DZE02RAB03E22 VCSH P0000 T02390194
KMEM 251654Z 17015G24KT 10SM -DZ FEW026 SCT080 BKN110 OVC200 24/20 A2985 RMK AO2 RAB02E14B43E53DZB54 SLP103 P0000 T02440200
KMEM 251554Z 13011KT 10SM FEW036 BKN070 OVC200 24/20 A2984 RMK AO2 RAB18E30B40E54 SLP100 P0000 T02440200
KMEM 251530Z 13011KT 10SM FEW036 BKN090 BKN200 23/20 A2985 RMK AO2 RAB18E30 P0000 T02330200
KMEM 251514Z 15009KT 10SM SCT017 BKN036 BKN070 23/19 A2987 RMK AO2 T02330194
KMEM 251454Z 16007KT 10SM BKN017 BKN031 OVC039 23/19 A2987 RMK AO2 PK WND 33026/1428 RAE39 SLP113 VCSH P0000 60000 T02330194 50008
KMEM 251416Z VRB04KT 10SM -RA BKN017 BKN023 OVC031 22/19 A2989 RMK AO2 P0000 T02170189
KMEM 251354Z 23005KT 10SM -RA BKN014 BKN019 OVC025 22/19 A2989 RMK AO2 RAB13 SLP119 P0000 T02170189
KMEM 251300Z 23009KT 10SM BKN011 BKN080 OVC095 21/19 A2989 RMK AO2 T02110189 $
KMEM 251254Z 24008KT 8SM OVC015 21/19 A2989 RMK AO2 WSHFT 1227 RAB40E50 SLP119 P0000 T02110189 $
KMEM 251246Z 24008G19KT 10SM -RA BKN015 BKN095 OVC250 21/19 A2988 RMK AO2 WSHFT 1227 RAB40 P0000 T02110189 $
KMEM 251244Z 24013G19KT 10SM -RA FEW015 SCT080 BKN095 22/19 A2989 RMK AO2 WSHFT 1227 RAB40 P0000 T02170189 $
KMEM 251154Z 16010G17KT 10SM SCT090 BKN150 OVC250 21/19 A2985 RMK AO2 RAE00 SLP104 P0000 60019 70039 T02110189 10217 20206 55010 $
KMEM 251054Z 16010KT 9SM -RA BKN120 OVC250 21/18 A2983 RMK AO2 RAE09B34 SLP099 P0001 T02060183 $
KMEM 250954Z 14011G17KT 8SM -RA FEW010 OVC120 21/19 A2984 RMK AO2 RAB0859 SLP100 P0001 T02110194 $
KMEM 250854Z 15009KT 10SM BKN110 OVC150 21/19 A2988 RMK AO2 RAE43 SLP114 P0003 60017 T02110189 50003 $
KMEM 250754Z 16010KT 7SM -RA FEW008 FEW055 OVC100 21/19 A2989 RMK AO2 SLP117 P0007 T02110194 $
KMEM 250749Z 15008KT 7SM -RA FEW008 FEW055 OVC100 21/19 A2989 RMK AO2 P0007 $
KMEM 250654Z 18008G18KT 4SM RA BR FEW017 BKN047 OVC060 21/19 A2990 RMK AO2 RAB35 SLP119 P0007 T02110194 $
KMEM 250554Z 15006KT 9SM FEW008 OVC200 21/19 A2987 RMK AO2 SLP111 60001 T02110194 10233 20211 402890189 58008 $
KMEM 250454Z 15008KT 10SM FEW008 FEW041 SCT160 BKN250 21/19 A2989 RMK AO2 SLP119 T02110194 $
KMEM 250418Z 16010KT 10SM FEW008 SCT110 BKN210 OVC250 21/19 A2991 RMK AO2 LTG DSNT SE T02110189 $
KMEM 250354Z 16012KT 10SM FEW035 FEW110 OVC220 21/19 A2991 RMK AO2 SLP125 T02110189 $
KMEM 250254Z 16007KT 10SM SCT110 BKN200 OVC250 22/19 A2989 RMK AO2 SLP119 OCNL LTG DSNT NW 60001 T02170189 53012 $
KMEM 250154Z 16007KT 10SM FEW009 FEW065 BKN130 OVC220 22/20 A2987 RMK AO2 RAE25 SLP111 FRQ LTGIC DSNT N AND W-NW CB DSNT N AND W-NW P0001 T02220200 $
KMEM 250058Z 16010KT 10SM -RA FEW009 SCT065 SCT090 BKN130 OVC180 23/21 A2986 RMK AO2 P0000 T02280211 $
KMEM 250054Z 16008KT 10SM -RA FEW020 SCT065 SCT090 BKN130 OVC180 23/21 A2987 RMK AO2 RAB46 SLP110 P0000 T02280211 $
KMEM 242354Z 14009KT 10SM SCT080 BKN110 BKN130 OVC250 23/22 A2986 RMK AO2 LTG DSNT NW RAE24 SLP107 P0008 60019 T02330217 10289 20233 57004 $
KMEM 242254Z 13009KT 9SM -RA FEW044 BKN055 OVC070 24/22 A2987 RMK AO2 RAB10E34B54 SLP111 P0011 T02390217 $
KMEM 242227Z 14012KT 9SM -RA SCT026 BKN048 OVC080 24/21 A2986 RMK AO2 LTG DSNT NE AND S RAB10 P0011 T02390211 $
KMEM 242203Z 14015G21KT 10SM BKN030 BKN047 BKN095 OVC250 27/20 A2986 RMK AO2 LTG DSNT NE T02670200 $
KMEM 242154Z 12008KT 10SM FEW032 SCT039 BKN047 BKN160 28/20 A2986 RMK AO2 LTG DSNT NE SLP106 T02780200 $
KMEM 242054Z 15006KT 10SM FEW027 SCT040 BKN060 BKN250 28/20 A2987 RMK AO2 LTG DSNT SE SLP110 CB DSNT SE MOV N T02780200 56024 $
KMEM 242046Z VRB05KT 10SM FEW027 SCT045 BKN060 BKN250 28/21 A2987 RMK AO2 LTG DSNT SE CB DSNT SE MOV N T02780206 $
KMEM 242004Z VRB05KT 10SM SCT022 BKN033 BKN042 OVC250 27/20 A2989 RMK AO2 LTG DSNT SE T02720200 $
KMEM 241954Z 14005KT 10SM SCT022 BKN033 OVC250 27/19 A2989 RMK AO2 SLP119 T02670194 $
KMEM 241920Z 14009KT 10SM SCT026 BKN038 OVC250 26/19 A2990 RMK AO2 T02610194 $
KMEM 241854Z 14010KT 10SM FEW020 BKN029 BKN038 BKN250 26/19 A2991 RMK AO2 SLP125 T02610194 $
KMEM 241835Z 14010G16KT 10SM FEW018 BKN029 BKN250 26/19 A2992 RMK AO2 T02610194 $
KMEM 241754Z 13007KT 10SM BKN018 OVC026 25/19 A2994 RMK AO2 SLP135 BKN V SCT T02500194 10261 20189 58012 $
KMEM 241654Z 13011KT 10SM OVC020 24/19 A2996 RMK AO2 SLP143 T02440189 $
KMEM 241554Z 15008KT 10SM BKN017 BKN040 OVC250 26/19 A2997 RMK AO2 SLP146 T02560194 $
KMEM 241454Z 09009KT 10SM SCT012 BKN023 BKN047 OVC250 23/18 A2997 RMK AO2 SLP147 SCT V BKN T02330183 56011 $
KMEM 241448Z 10009KT 10SM SCT012 BKN023 BKN046 OVC250 23/18 A2998 RMK AO2 SCT V BKN
KMEM 241402Z 10008KT 10SM BKN013 BKN035 OVC060 22/17 A2999 RMK AO2 T02170172
KMEM 241354Z 09010KT 10SM SCT013 BKN047 BKN060 OVC250 22/17 A2999 RMK AO2 SLP153 T02170172
KMEM 241326Z 09009KT 10SM SCT009 BKN044 OVC055 21/17 A3000 RMK AO2 T02060167
KMEM 241254Z 10009KT 10SM BKN009 OVC025 19/17 A3001 RMK AO2 SLP159 T01940167
KMEM 241154Z 08009KT 10SM OVC009 19/16 A3001 RMK AO2 SLP159 T01890161 10206 20189 58000
KMEM 241122Z COR 09010KT 10SM OVC009 19/16 A3001 RMK AO2 T01890161
KMEM 241054Z 09007KT 10SM OVC010 19/16 A3002 RMK AO2 SLP161 T01940161
KMEM 240954Z 09005KT 10SM OVC011 19/17 A3001 RMK AO2 SLP160 T01940167
KMEM 240854Z VRB05KT 10SM OVC012 19/17 A3001 RMK AO2 SLP160 T01940167 56008